createdAt,value
2022-09-22T00:01:18.745Z,2.33
2022-09-22T00:03:49.919Z,2.13
2022-09-22T00:06:18.197Z,2.28
2022-09-22T00:08:45.893Z,1.58
2022-09-22T00:11:18.111Z,2.10
2022-09-22T00:13:45.905Z,2.00
2022-09-22T00:16:13.856Z,1.85
2022-09-22T00:18:40.452Z,2.33
2022-09-22T00:21:12.654Z,2.33
2022-09-22T00:23:39.681Z,2.13
2022-09-22T00:26:08.295Z,1.88
2022-09-22T00:28:34.798Z,1.95
2022-09-22T00:31:04.151Z,2.08
2022-09-22T00:33:30.708Z,1.88
2022-09-22T00:35:58.503Z,2.40
2022-09-22T00:38:25.237Z,1.98
2022-09-22T00:40:51.901Z,2.30
2022-09-22T00:43:21.201Z,2.00
2022-09-22T00:45:54.659Z,2.00
2022-09-22T00:48:23.159Z,1.85
2022-09-22T00:50:51.502Z,1.95
2022-09-22T00:53:19.855Z,1.90
2022-09-22T00:55:49.083Z,1.90
2022-09-22T00:58:16.894Z,2.00
2022-09-22T01:00:43.605Z,2.05
2022-09-22T01:03:14.167Z,2.17
2022-09-22T01:05:42.229Z,2.08
2022-09-22T01:08:09.511Z,1.90
2022-09-22T01:10:36.210Z,1.92
2022-09-22T01:13:08.677Z,1.90
2022-09-22T01:15:45.176Z,2.13
2022-09-22T01:18:41.088Z,2.17
2022-09-22T01:21:14.988Z,2.05
2022-09-22T01:23:59.561Z,2.13
2022-09-22T01:26:45.615Z,2.00
2022-09-22T01:29:12.228Z,2.08
2022-09-22T01:31:46.550Z,2.13
2022-09-22T01:34:13.654Z,2.10
2022-09-22T01:37:10.988Z,1.90
2022-09-22T01:39:43.472Z,2.05
2022-09-22T01:42:11.753Z,1.88
2022-09-22T01:44:43.364Z,1.83
2022-09-22T01:47:13.502Z,2.13
2022-09-22T01:49:42.526Z,2.30
2022-09-22T01:52:28.090Z,2.00
2022-09-22T01:55:04.425Z,2.58
2022-09-22T01:57:51.441Z,1.95
2022-09-22T02:00:18.937Z,1.92
2022-09-22T02:02:52.036Z,1.95
2022-09-22T02:05:21.700Z,2.30
2022-09-22T02:07:49.943Z,1.98
2022-09-22T02:10:18.138Z,2.33
2022-09-22T02:12:44.867Z,1.77
2022-09-22T02:15:31.588Z,2.15
2022-09-22T02:18:01.548Z,2.00
2022-09-22T02:20:28.228Z,1.92
2022-09-22T02:22:54.866Z,2.38
2022-09-22T02:25:23.382Z,2.25
2022-09-22T02:27:50.866Z,1.85
2022-09-22T02:30:17.505Z,2.22
2022-09-22T02:32:46.766Z,1.95
2022-09-22T02:35:13.765Z,2.60
2022-09-22T02:37:43.095Z,2.47
2022-09-22T02:40:30.799Z,2.00
2022-09-22T02:43:06.361Z,1.90
2022-09-22T02:45:50.256Z,2.00
2022-09-22T02:48:21.625Z,2.17
2022-09-22T02:50:48.214Z,2.08
2022-09-22T02:53:16.256Z,2.58
2022-09-22T02:55:43.657Z,1.90
2022-09-22T02:58:10.341Z,1.83
2022-09-22T03:00:37.523Z,1.80
2022-09-22T03:03:04.512Z,2.45
2022-09-22T03:05:31.151Z,2.17
2022-09-22T03:07:57.735Z,1.90
2022-09-22T03:10:24.733Z,1.80
2022-09-22T03:13:15.033Z,1.70
2022-09-22T03:15:38.420Z,1.90
2022-09-22T03:18:05.077Z,2.13
2022-09-22T03:20:32.240Z,1.98
2022-09-22T03:22:58.731Z,2.33
2022-09-22T03:25:25.208Z,2.17
2022-09-22T03:27:51.798Z,2.03
2022-09-22T03:30:18.452Z,2.15
2022-09-22T03:32:45.070Z,1.95
2022-09-22T03:35:11.606Z,2.17
2022-09-22T03:37:38.327Z,2.20
2022-09-22T03:40:05.393Z,1.90
2022-09-22T03:42:32.969Z,2.00
2022-09-22T03:44:59.821Z,2.00
2022-09-22T03:47:26.356Z,1.90
2022-09-22T03:49:52.895Z,2.05
2022-09-22T03:52:20.650Z,1.95
2022-09-22T03:54:47.169Z,1.90
2022-09-22T03:57:14.146Z,2.10
2022-09-22T03:59:40.744Z,2.30
2022-09-22T04:02:07.310Z,2.30
2022-09-22T04:04:34.098Z,2.00
2022-09-22T04:07:06.744Z,2.00
2022-09-22T04:09:33.903Z,1.73
2022-09-22T04:12:00.952Z,1.77
2022-09-22T04:14:27.502Z,1.88
2022-09-22T04:16:54.340Z,2.10
2022-09-22T04:19:20.938Z,2.10
2022-09-22T04:21:47.476Z,2.08
2022-09-22T04:24:16.656Z,1.70
2022-09-22T04:27:02.191Z,1.90
2022-09-22T04:29:32.305Z,1.75
2022-09-22T04:31:59.069Z,1.70
2022-09-22T04:34:25.756Z,1.80
2022-09-22T04:36:52.432Z,1.95
2022-09-22T04:39:23.525Z,1.83
2022-09-22T04:41:50.797Z,1.75
2022-09-22T04:44:17.397Z,1.52
2022-09-22T04:46:46.265Z,1.70
2022-09-22T04:49:15.688Z,1.60
2022-09-22T04:51:42.379Z,1.80
2022-09-22T04:54:09.368Z,2.05
2022-09-22T04:56:35.982Z,1.60
2022-09-22T04:59:02.570Z,1.95
2022-09-22T05:01:29.181Z,2.25
2022-09-22T05:03:55.855Z,1.85
2022-09-22T05:06:22.360Z,1.70
2022-09-22T05:08:48.916Z,1.70
2022-09-22T05:11:15.543Z,2.17
2022-09-22T05:13:42.195Z,1.90
2022-09-22T05:16:08.821Z,2.13
2022-09-22T05:18:35.538Z,2.78
2022-09-22T05:21:02.311Z,3.20
2022-09-22T05:23:28.848Z,4.30
2022-09-22T05:25:55.483Z,4.07
2022-09-22T05:28:24.392Z,4.13
2022-09-22T05:30:51.599Z,5.55
2022-09-22T05:33:18.411Z,5.60
2022-09-22T05:35:45.516Z,5.00
2022-09-22T05:38:11.986Z,5.80
2022-09-22T05:40:38.573Z,6.90
2022-09-22T05:43:07.841Z,5.95
2022-09-22T05:45:34.463Z,5.70
2022-09-22T05:48:01.246Z,5.47
2022-09-22T05:50:27.741Z,6.30
2022-09-22T05:53:05.069Z,6.13
2022-09-22T05:55:31.777Z,5.13
2022-09-22T05:57:58.474Z,4.80
2022-09-22T06:00:25.041Z,4.82
2022-09-22T06:02:51.671Z,5.10
2022-09-22T06:05:19.589Z,4.72
2022-09-22T06:07:46.616Z,4.53
2022-09-22T06:10:13.228Z,4.40
2022-09-22T06:12:40.031Z,5.13
2022-09-22T06:15:07.255Z,4.75
2022-09-22T06:17:33.961Z,4.80
2022-09-22T06:20:00.787Z,5.15
2022-09-22T06:22:28.210Z,5.10
2022-09-22T06:24:54.864Z,5.63
2022-09-22T06:27:21.479Z,6.00
2022-09-22T06:29:47.945Z,5.82
2022-09-22T06:32:14.610Z,5.95
2022-09-22T06:34:41.118Z,6.28
2022-09-22T06:37:10.601Z,6.28
2022-09-22T06:39:40.111Z,5.28
2022-09-22T06:42:06.705Z,5.80
2022-09-22T06:44:33.400Z,6.03
2022-09-22T06:47:05.201Z,5.63
2022-09-22T06:49:31.724Z,6.95
2022-09-22T06:51:58.661Z,5.63
2022-09-22T06:54:25.770Z,5.35
2022-09-22T06:56:52.479Z,6.18
2022-09-22T06:59:19.740Z,5.32
2022-09-22T07:01:46.707Z,5.40
2022-09-22T07:04:14.177Z,5.05
2022-09-22T07:06:41.078Z,5.22
2022-09-22T07:09:09.207Z,5.18
2022-09-22T07:11:39.745Z,4.35
2022-09-22T07:14:08.458Z,4.68
2022-09-22T07:16:36.221Z,4.45
2022-09-22T07:19:04.218Z,4.10
2022-09-22T07:21:35.205Z,4.90
2022-09-22T07:24:02.109Z,3.97
2022-09-22T07:26:30.812Z,5.03
2022-09-22T07:28:59.567Z,4.75
2022-09-22T07:31:28.959Z,4.30
2022-09-22T07:33:56.158Z,4.82
2022-09-22T07:36:23.817Z,4.80
2022-09-22T07:38:51.476Z,4.72
2022-09-22T07:41:28.375Z,4.03
2022-09-22T07:44:15.912Z,3.95
2022-09-22T07:46:42.551Z,3.85
2022-09-22T07:49:09.073Z,3.92
2022-09-22T07:51:35.749Z,4.05
2022-09-22T07:54:08.136Z,3.70
2022-09-22T07:56:35.404Z,3.83
2022-09-22T07:59:07.513Z,4.03
2022-09-22T08:01:34.683Z,4.07
2022-09-22T08:04:01.593Z,3.85
2022-09-22T08:06:28.811Z,3.60
2022-09-22T08:08:57.018Z,3.95
2022-09-22T08:11:28.345Z,3.63
2022-09-22T08:14:02.294Z,3.90
2022-09-22T08:16:29.940Z,3.22
2022-09-22T08:18:57.097Z,4.40
2022-09-22T08:21:24.168Z,3.28
2022-09-22T08:23:53.888Z,3.45
2022-09-22T08:26:21.149Z,3.28
2022-09-22T08:28:53.404Z,3.67
2022-09-22T08:31:20.784Z,3.63
2022-09-22T08:33:48.715Z,3.03
2022-09-22T08:36:15.999Z,3.97
2022-09-22T08:38:42.800Z,3.35
2022-09-22T08:41:18.910Z,3.30
2022-09-22T08:43:47.088Z,3.35
2022-09-22T08:46:14.666Z,3.42
2022-09-22T08:49:03.225Z,3.50
2022-09-22T08:51:55.450Z,2.95
2022-09-22T08:54:26.699Z,2.63
2022-09-22T08:57:11.391Z,3.35
2022-09-22T08:59:58.208Z,2.95
2022-09-22T09:02:37.688Z,3.10
2022-09-22T09:05:13.139Z,2.42
2022-09-22T09:08:00.837Z,2.80
2022-09-22T09:10:46.568Z,3.03
2022-09-22T09:13:13.134Z,2.75
2022-09-22T09:15:54.530Z,2.53
2022-09-22T09:18:25.403Z,2.45
2022-09-22T09:20:52.166Z,2.85
2022-09-22T09:23:21.375Z,2.65
2022-09-22T09:25:50.232Z,2.67
2022-09-22T09:28:27.659Z,2.42
2022-09-22T09:31:00.436Z,2.50
2022-09-22T09:33:29.690Z,2.28
2022-09-22T09:35:56.643Z,2.95
2022-09-22T09:38:30.617Z,2.75
2022-09-22T09:41:12.761Z,2.72
2022-09-22T09:43:42.803Z,2.55
2022-09-22T09:46:17.041Z,2.20
2022-09-22T09:48:54.168Z,1.92
2022-09-22T09:51:21.186Z,2.83
2022-09-22T09:53:47.897Z,2.20
2022-09-22T09:56:14.362Z,2.30
2022-09-22T09:59:13.155Z,2.20
2022-09-22T10:01:42.110Z,1.88
2022-09-22T10:04:20.919Z,2.08
2022-09-22T10:06:47.715Z,2.55
2022-09-22T10:09:28.696Z,2.13
2022-09-22T10:12:01.813Z,2.40
2022-09-22T10:14:32.685Z,2.60
2022-09-22T10:16:59.592Z,2.50
2022-09-22T10:19:26.091Z,2.33
2022-09-22T10:21:52.872Z,2.97
2022-09-22T10:24:30.880Z,2.72
2022-09-22T10:26:58.123Z,2.35
2022-09-22T10:29:25.752Z,2.40
2022-09-22T10:32:11.401Z,2.90
2022-09-22T10:34:40.946Z,2.60
2022-09-22T10:37:15.461Z,2.92
2022-09-22T10:39:47.012Z,2.75
2022-09-22T10:42:25.850Z,2.75
2022-09-22T10:44:52.986Z,2.58
2022-09-22T10:47:27.393Z,2.83
2022-09-22T10:49:54.196Z,2.03
2022-09-22T10:52:20.661Z,2.40
2022-09-22T10:54:58.635Z,2.03
2022-09-22T10:57:25.269Z,2.10
2022-09-22T11:00:02.316Z,2.10
2022-09-22T11:02:47.371Z,1.90
2022-09-22T11:05:50.844Z,1.95
2022-09-22T11:08:50.657Z,2.20
2022-09-22T11:11:45.886Z,2.05
2022-09-22T11:14:28.064Z,2.35
2022-09-22T11:17:00.795Z,1.90
2022-09-22T11:19:27.339Z,1.55
2022-09-22T11:22:06.267Z,1.90
2022-09-22T11:24:47.734Z,1.58
2022-09-22T11:27:25.209Z,1.90
2022-09-22T11:30:27.429Z,1.80
2022-09-22T11:33:13.204Z,1.85
2022-09-22T11:35:42.873Z,1.90
2022-09-22T11:38:34.735Z,1.70
2022-09-22T11:41:07.495Z,1.80
2022-09-22T11:43:52.612Z,2.15
2022-09-22T11:46:37.401Z,2.20
2022-09-22T11:49:07.105Z,1.92
2022-09-22T11:51:34.100Z,2.00
2022-09-22T11:54:39.288Z,1.95
2022-09-22T11:57:11.773Z,1.50
2022-09-22T11:59:42.208Z,1.88
2022-09-22T12:02:28.302Z,1.60
2022-09-22T12:05:13.202Z,1.45
2022-09-22T12:07:45.934Z,1.70
2022-09-22T12:10:19.925Z,2.13
2022-09-22T12:12:48.645Z,1.90
2022-09-22T12:15:15.087Z,1.50
2022-09-22T12:17:49.745Z,1.60
2022-09-22T12:20:28.398Z,1.95
2022-09-22T12:22:57.929Z,1.63
2022-09-22T12:25:48.730Z,1.95
2022-09-22T12:28:17.403Z,1.30
2022-09-22T12:30:53.104Z,1.23
2022-09-22T12:33:22.272Z,1.70
2022-09-22T12:35:53.394Z,1.55
2022-09-22T12:38:21.078Z,1.45
2022-09-22T12:40:49.091Z,1.80
2022-09-22T12:43:19.293Z,1.50
2022-09-22T12:45:48.985Z,1.85
2022-09-22T12:48:17.522Z,1.60
2022-09-22T12:50:44.838Z,1.75
2022-09-22T12:53:23.318Z,1.60
2022-09-22T12:55:51.209Z,1.48
2022-09-22T12:58:20.514Z,1.42
2022-09-22T13:00:53.745Z,1.45
2022-09-22T13:03:27.599Z,1.53
2022-09-22T13:05:55.657Z,1.55
2022-09-22T13:08:26.134Z,1.58
2022-09-22T13:10:54.061Z,1.83
2022-09-22T13:13:32.272Z,1.50
2022-09-22T13:16:02.864Z,1.83
2022-09-22T13:18:37.342Z,1.38
2022-09-22T13:21:13.132Z,1.33
2022-09-22T13:23:51.879Z,1.30
2022-09-22T13:26:21.278Z,1.42
2022-09-22T13:29:10.976Z,1.30
2022-09-22T13:31:39.010Z,1.45
2022-09-22T13:34:24.594Z,1.45
2022-09-22T13:36:52.113Z,1.52
2022-09-22T13:39:19.688Z,1.33
2022-09-22T13:41:52.405Z,1.30
2022-09-22T13:44:25.177Z,1.38
2022-09-22T13:46:52.456Z,1.20
2022-09-22T13:49:27.207Z,1.38
2022-09-22T13:51:55.992Z,1.33
2022-09-22T13:54:23.797Z,1.48
2022-09-22T13:56:50.634Z,1.08
2022-09-22T13:59:17.661Z,1.05
2022-09-22T14:01:49.601Z,1.50
2022-09-22T14:04:22.206Z,1.48
2022-09-22T14:06:49.119Z,1.65
2022-09-22T14:09:15.785Z,1.27
2022-09-22T14:11:42.576Z,1.58
2022-09-22T14:14:21.985Z,1.55
2022-09-22T14:16:53.099Z,1.20
2022-09-22T14:19:24.429Z,1.40
2022-09-22T14:22:02.869Z,1.05
2022-09-22T14:24:33.265Z,1.05
2022-09-22T14:27:04.151Z,1.38
2022-09-22T14:29:40.724Z,1.15
2022-09-22T14:32:12.898Z,1.02
2022-09-22T14:34:40.742Z,1.17
2022-09-22T14:37:24.857Z,1.27
2022-09-22T14:39:52.761Z,1.33
2022-09-22T14:42:29.140Z,1.15
2022-09-22T14:45:10.045Z,1.20
2022-09-22T14:47:40.462Z,0.90
2022-09-22T14:50:09.427Z,1.40
2022-09-22T14:52:39.361Z,0.95
2022-09-22T14:55:12.267Z,0.90
2022-09-22T14:57:38.971Z,1.02
2022-09-22T15:00:24.477Z,0.75
2022-09-22T15:02:53.973Z,0.90
2022-09-22T15:05:29.388Z,1.23
2022-09-22T15:07:56.632Z,1.00
2022-09-22T15:10:30.356Z,1.20
2022-09-22T15:13:17.209Z,1.00
2022-09-22T15:15:48.201Z,1.00
2022-09-22T15:18:19.268Z,1.17
2022-09-22T15:20:47.644Z,1.10
2022-09-22T15:23:19.587Z,1.00
2022-09-22T15:25:46.672Z,1.08
2022-09-22T15:28:14.691Z,1.30
2022-09-22T15:30:42.440Z,1.08
2022-09-22T15:33:13.523Z,1.00
2022-09-22T15:35:41.723Z,0.90
2022-09-22T15:38:14.030Z,1.02
2022-09-22T15:40:40.565Z,1.10
2022-09-22T15:43:13.379Z,1.10
2022-09-22T15:45:49.281Z,1.02
2022-09-22T15:48:22.817Z,1.10
2022-09-22T15:50:49.462Z,1.00
2022-09-22T15:53:16.071Z,1.20
2022-09-22T15:55:42.778Z,1.00
2022-09-22T15:58:14.341Z,1.02
2022-09-22T16:00:41.005Z,1.00
2022-09-22T16:03:28.026Z,1.67
2022-09-22T16:05:57.061Z,0.80
2022-09-22T16:08:28.461Z,1.00
2022-09-22T16:11:03.528Z,1.10
2022-09-22T16:13:31.284Z,1.20
2022-09-22T16:15:57.943Z,1.05
2022-09-22T16:18:24.538Z,1.05
2022-09-22T16:20:51.862Z,1.10
2022-09-22T16:23:19.568Z,0.90
2022-09-22T16:25:51.810Z,1.08
2022-09-22T16:28:18.428Z,1.02
2022-09-22T16:30:44.993Z,1.13
2022-09-22T16:33:11.581Z,1.00
2022-09-22T16:35:39.353Z,0.80
2022-09-22T16:38:06.169Z,0.98
2022-09-22T16:40:33.011Z,1.23
2022-09-22T16:43:00.355Z,1.08
2022-09-22T16:45:45.138Z,1.00
2022-09-22T16:48:12.365Z,0.95
2022-09-22T16:50:39.460Z,1.00
2022-09-22T16:53:09.593Z,0.90
2022-09-22T16:55:37.663Z,0.90
2022-09-22T16:58:06.067Z,0.73
2022-09-22T17:00:32.726Z,1.08
2022-09-22T17:02:59.607Z,0.93
2022-09-22T17:05:26.186Z,1.00
2022-09-22T17:07:52.730Z,1.17
2022-09-22T17:10:20.222Z,1.08
2022-09-22T17:12:46.898Z,1.08
2022-09-22T17:15:16.399Z,0.90
2022-09-22T17:17:43.591Z,1.00
2022-09-22T17:20:10.695Z,0.80
2022-09-22T17:22:37.452Z,1.13
2022-09-22T17:25:04.085Z,1.10
2022-09-22T17:27:30.605Z,0.90
2022-09-22T17:29:57.560Z,1.20
2022-09-22T17:32:27.921Z,0.77
2022-09-22T17:34:54.758Z,0.70
2022-09-22T17:37:21.279Z,0.90
2022-09-22T17:39:47.799Z,0.80
2022-09-22T17:42:15.499Z,0.85
2022-09-22T17:44:42.052Z,1.23
2022-09-22T17:47:27.317Z,1.20
2022-09-22T17:50:12.527Z,0.80
2022-09-22T17:52:57.524Z,0.70
2022-09-22T17:55:25.588Z,0.90
2022-09-22T17:57:52.799Z,1.23
2022-09-22T18:00:23.203Z,0.88
2022-09-22T18:02:50.573Z,1.13
2022-09-22T18:05:19.154Z,0.90
2022-09-22T18:07:45.881Z,0.80
2022-09-22T18:10:16.486Z,1.00
2022-09-22T18:12:43.605Z,1.00
2022-09-22T18:15:13.134Z,1.55
2022-09-22T18:17:43.171Z,0.95
2022-09-22T18:20:11.536Z,1.38
2022-09-22T18:22:39.860Z,1.00
2022-09-22T18:25:10.999Z,1.00
2022-09-22T18:27:38.261Z,1.20
2022-09-22T18:30:05.259Z,1.20
2022-09-22T18:32:31.938Z,0.90
2022-09-22T18:34:58.879Z,1.00
2022-09-22T18:37:26.891Z,0.90
2022-09-22T18:39:53.748Z,0.70
2022-09-22T18:42:24.187Z,0.90
2022-09-22T18:44:51.605Z,1.10
2022-09-22T18:47:19.070Z,1.02
2022-09-22T18:49:48.172Z,0.82
2022-09-22T18:52:16.258Z,0.80
2022-09-22T18:54:43.901Z,0.90
2022-09-22T18:57:12.360Z,1.00
2022-09-22T18:59:39.279Z,0.73
2022-09-22T19:02:10.711Z,1.23
2022-09-22T19:04:38.917Z,0.95
2022-09-22T19:07:24.171Z,1.00
2022-09-22T19:09:52.607Z,1.13
2022-09-22T19:12:20.454Z,0.90
2022-09-22T19:14:48.159Z,0.90
2022-09-22T19:17:17.376Z,1.10
2022-09-22T19:19:48.859Z,0.80
2022-09-22T19:22:15.959Z,0.98
2022-09-22T19:24:44.813Z,1.00
2022-09-22T19:27:12.752Z,1.00
2022-09-22T19:29:41.905Z,1.48
2022-09-22T19:32:08.660Z,1.00
2022-09-22T19:34:36.452Z,1.20
2022-09-22T19:37:03.289Z,1.15
2022-09-22T19:39:32.231Z,0.98
2022-09-22T19:41:58.813Z,1.02
2022-09-22T19:44:27.016Z,1.55
2022-09-22T19:46:53.610Z,0.95
2022-09-22T19:49:20.120Z,1.00
2022-09-22T19:51:46.677Z,1.40
2022-09-22T19:54:13.759Z,1.00
2022-09-22T19:56:40.359Z,1.10
2022-09-22T19:59:09.920Z,1.00
2022-09-22T20:01:37.967Z,0.75
2022-09-22T20:04:05.305Z,0.93
2022-09-22T20:06:32.767Z,1.00
2022-09-22T20:09:02.811Z,0.80
2022-09-22T20:11:32.844Z,1.40
2022-09-22T20:14:18.033Z,0.82
2022-09-22T20:16:46.633Z,1.00
2022-09-22T20:19:13.438Z,1.02
2022-09-22T20:21:42.454Z,1.02
2022-09-22T20:24:11.427Z,1.17
2022-09-22T20:26:38.002Z,0.88
2022-09-22T20:29:04.528Z,1.08
2022-09-22T20:31:31.199Z,1.20
2022-09-22T20:33:57.948Z,1.20
2022-09-22T20:36:24.743Z,1.10
2022-09-22T20:38:51.577Z,1.00
2022-09-22T20:41:19.935Z,1.05
2022-09-22T20:43:46.455Z,1.02
2022-09-22T20:46:13.191Z,1.10
2022-09-22T20:48:39.771Z,0.85
2022-09-22T20:51:06.385Z,1.20
2022-09-22T20:53:33.837Z,1.38
2022-09-22T20:56:01.390Z,1.10
2022-09-22T20:58:28.577Z,1.55
2022-09-22T21:00:56.407Z,1.27
2022-09-22T21:03:22.891Z,1.23
2022-09-22T21:05:50.007Z,1.60
2022-09-22T21:08:35.309Z,1.50
2022-09-22T21:11:02.117Z,1.30
2022-09-22T21:13:28.793Z,1.30
2022-09-22T21:16:03.811Z,1.30
2022-09-22T21:18:34.031Z,1.30
2022-09-22T21:21:05.637Z,1.40
2022-09-22T21:23:32.779Z,1.25
2022-09-22T21:26:04.048Z,1.15
2022-09-22T21:28:30.726Z,1.33
2022-09-22T21:30:58.312Z,1.52
2022-09-22T21:33:25.917Z,1.23
2022-09-22T21:36:01.644Z,1.27
2022-09-22T21:38:29.475Z,1.40
2022-09-22T21:41:00.098Z,1.13
2022-09-22T21:43:27.910Z,1.40
2022-09-22T21:46:05.711Z,1.20
2022-09-22T21:48:36.240Z,1.20
2022-09-22T21:51:06.875Z,1.20
2022-09-22T21:53:34.540Z,1.30
2022-09-22T21:56:02.760Z,1.30
2022-09-22T21:58:30.037Z,1.40
2022-09-22T22:00:56.887Z,1.33
2022-09-22T22:03:32.351Z,1.77
2022-09-22T22:06:21.206Z,1.13
2022-09-22T22:09:04.201Z,1.40
2022-09-22T22:11:37.940Z,1.08
2022-09-22T22:14:06.324Z,1.10
2022-09-22T22:16:35.616Z,1.40
2022-09-22T22:19:02.290Z,1.38
2022-09-22T22:21:29.501Z,1.23
2022-09-22T22:24:17.220Z,1.35
2022-09-22T22:26:44.479Z,1.40
2022-09-22T22:29:13.919Z,1.63
2022-09-22T22:31:40.954Z,1.40
2022-09-22T22:34:11.251Z,1.42
2022-09-22T22:36:38.183Z,1.50
2022-09-22T22:39:05.016Z,1.42
2022-09-22T22:41:31.690Z,1.20
2022-09-22T22:43:58.554Z,1.38
2022-09-22T22:46:25.247Z,0.90
2022-09-22T22:48:51.825Z,1.40
2022-09-22T22:51:22.816Z,1.23
2022-09-22T22:53:50.369Z,1.02
2022-09-22T22:56:18.170Z,1.40
2022-09-22T22:58:45.622Z,1.10
2022-09-22T23:01:14.206Z,0.98
2022-09-22T23:03:41.980Z,1.40
2022-09-22T23:06:12.032Z,1.38
2022-09-22T23:08:38.975Z,1.38
2022-09-22T23:11:07.421Z,1.48
2022-09-22T23:13:33.938Z,1.30
2022-09-22T23:16:01.397Z,1.60
2022-09-22T23:18:27.996Z,1.33
2022-09-22T23:20:56.157Z,1.20
2022-09-22T23:23:22.816Z,1.00
2022-09-22T23:25:50.076Z,1.38
2022-09-22T23:28:16.791Z,1.63
2022-09-22T23:30:43.452Z,1.65
2022-09-22T23:33:11.379Z,1.55
2022-09-22T23:35:38.410Z,1.67
2022-09-22T23:38:07.757Z,1.30
2022-09-22T23:40:35.822Z,1.52
2022-09-22T23:43:02.526Z,1.63
2022-09-22T23:45:29.680Z,1.35
2022-09-22T23:47:56.244Z,1.40
2022-09-22T23:50:23.480Z,1.48
2022-09-22T23:52:54.415Z,1.42
2022-09-22T23:55:20.973Z,1.40
2022-09-22T23:57:50.636Z,1.50
